Airfield :
LOGIN :

Register | Disclaimer

   EN    FR    IT 

 










Legend :    VFR   Marginal VFR   IFR   Intensive IFR   Very Intensive IFR
Visi :
Ceiling :
>= 8 km
>= 3000ft
5 to 8 km
1000 to 3000 ft
1500m to 5 km
500 to 1000 ft
800 to 1500m
200 to 500 ft
< 800m
< 200 ft
Symbols :   Thunderstorms  Fog  Heavy snow  Heavy precipitations  Wind > 20 kt
SIGMETs :     Misc.  Thunderstorms  Icing  Turbulence  Mountain Waves  Volcanic Ashes






- Airport Elevation : 266 ft
- IATA code : HFT


ENHF - Hammerfest

CURRENT METAR :
  • 040150Z 28013KT 240V310 9999 SCT048 M04/M09 Q0989 RMK WIND 1254FT 31032KT

EXPIRED METARs :
  • 040050Z 28015KT 260V330 3500 -SHSN FEW009 BKN019 M04/M06 Q0988 RMK WIND 1254FT 30027KT
  • 040020Z 27013KT 8000 VCSH DRSN FEW015 SCT033 M04/M06 Q0988 RMK WIND 1254FT 29027KT
  • 032350Z VRB10G25KT 8000 VCSH DRSN FEW015 SCT033 M04/M07 Q0987 RMK WIND 1254FT 30031KT
  • 032320Z 26018G29KT 0600 -SHSN VV004 M05/M06 Q0987 RMK WIND 1254FT 29040KT

TAF TAF ENHF
Valid from the 04 at 00:00 until the 04 at 09:00 UTC


032300Z 0400/0409 30012KT 9999 SCT025
TEMPO 0400/0403 31020G30KT
TEMPO 0400/0409 1800 SHSN VV006



MET'MAP, your aeronautical weather chart ! - Copyright ORBIFLY December 2007 - Disclaimer

ORBIFLY MET'MAP TEAM :

Programming & Development : Alexandra Zaïnal
Concept & original design : Baudouin d'Aumeries
Assistance for programming : Marc-Olivier Méhu
Technical & hardware support : Manuel Goepfert

Contact : metmap@orbifly.com




SOURCES & CREDITS :

   NOAA